createdAt,value
2016-11-01T00:00:28.715Z,1019.18
2016-11-01T00:01:10.238Z,1019.14
2016-11-01T00:01:51.732Z,1019.12
2016-11-01T00:02:33.466Z,1019.15
2016-11-01T00:03:15.078Z,1019.12
2016-11-01T00:03:56.825Z,1019.13
2016-11-01T00:04:38.633Z,1019.09
2016-11-01T00:05:20.274Z,1019.07
2016-11-01T00:09:25.007Z,1019.04
2016-11-01T00:10:06.572Z,1019.05
2016-11-01T00:12:01.314Z,1019
2016-11-01T00:12:42.938Z,1019.01
2016-11-01T00:13:24.569Z,1018.97
2016-11-01T00:15:24.590Z,1018.93
2016-11-01T00:16:05.940Z,1018.96
2016-11-01T00:16:47.588Z,1018.99
2016-11-01T00:18:42.182Z,1018.95
2016-11-01T00:20:42.187Z,1018.92
2016-11-01T00:21:23.874Z,1018.87
2016-11-01T00:22:05.332Z,1018.89
2016-11-01T00:22:46.929Z,1018.87
2016-11-01T00:24:46.970Z,1018.82
2016-11-01T00:25:28.597Z,1018.79
2016-11-01T00:26:10.209Z,1018.76
2016-11-01T00:28:41.302Z,1018.77
2016-11-01T00:29:22.916Z,1018.76
2016-11-01T00:30:04.512Z,1018.74
2016-11-01T00:30:46.273Z,1018.77
2016-11-01T00:31:27.989Z,1018.77
2016-11-01T00:33:22.660Z,1018.75
2016-11-01T00:34:04.282Z,1018.77
2016-11-01T00:34:46.101Z,1018.76
2016-11-01T00:35:27.783Z,1018.77
2016-11-01T00:36:09.215Z,1018.76
2016-11-01T00:38:03.915Z,1018.73
2016-11-01T00:38:45.671Z,1018.7
2016-11-01T00:39:27.270Z,1018.72
2016-11-01T00:40:08.985Z,1018.72
2016-11-01T00:40:50.647Z,1018.68
2016-11-01T00:41:32.248Z,1018.7
2016-11-01T00:43:26.986Z,1018.72
2016-11-01T00:44:08.731Z,1018.66
2016-11-01T00:44:50.408Z,1018.7
2016-11-01T00:47:10.963Z,1018.67
2016-11-01T00:49:42.024Z,1018.66
2016-11-01T00:50:23.599Z,1018.62
2016-11-01T00:51:05.276Z,1018.64
2016-11-01T00:53:36.396Z,1018.58
2016-11-01T00:54:18.100Z,1018.6
2016-11-01T00:54:59.733Z,1018.56
2016-11-01T00:55:41.454Z,1018.54
2016-11-01T00:56:23.188Z,1018.55
2016-11-01T00:57:04.783Z,1018.54
2016-11-01T00:57:46.242Z,1018.55
2016-11-01T00:59:46.212Z,1018.52
2016-11-01T01:01:40.620Z,1018.49
2016-11-01T01:02:22.463Z,1018.5
2016-11-01T01:03:04.092Z,1018.51
2016-11-01T01:03:45.757Z,1018.53
2016-11-01T01:04:27.582Z,1018.52
2016-11-01T01:05:09.233Z,1018.49
2016-11-01T01:09:13.827Z,1018.51
2016-11-01T01:09:55.616Z,1018.54
2016-11-01T01:10:37.230Z,1018.52
2016-11-01T01:11:18.938Z,1018.49
2016-11-01T01:12:00.641Z,1018.47
2016-11-01T01:12:42.367Z,1018.46
2016-11-01T01:13:24.067Z,1018.46
2016-11-01T01:15:44.912Z,1018.44
2016-11-01T01:16:26.168Z,1018.49
2016-11-01T01:17:07.694Z,1018.45
2016-11-01T01:19:02.407Z,1018.4
2016-11-01T01:19:44.130Z,1018.42
2016-11-01T01:20:25.910Z,1018.42
2016-11-01T01:21:07.667Z,1018.42
2016-11-01T01:21:49.437Z,1018.44
2016-11-01T01:22:31.063Z,1018.41
2016-11-01T01:23:12.815Z,1018.37
2016-11-01T01:23:54.592Z,1018.39
2016-11-01T01:24:36.254Z,1018.34
2016-11-01T01:26:36.412Z,1018.27
2016-11-01T01:27:18.104Z,1018.27
2016-11-01T01:31:02.188Z,1018.13
2016-11-01T01:31:43.884Z,1018.14
2016-11-01T01:32:25.568Z,1018.11
2016-11-01T01:33:07.081Z,1018.12
2016-11-01T01:35:01.936Z,1018.04
2016-11-01T01:35:43.719Z,1018.04
2016-11-01T01:36:25.298Z,1018.02
2016-11-01T01:37:06.911Z,1018.01
2016-11-01T01:40:56.366Z,1017.93
2016-11-01T01:41:37.863Z,1017.92
2016-11-01T01:42:19.468Z,1017.92
2016-11-01T01:43:00.972Z,1017.87
2016-11-01T01:43:42.733Z,1017.9
2016-11-01T01:44:24.423Z,1017.87
2016-11-01T01:48:34.610Z,1017.86
2016-11-01T01:49:16.329Z,1017.86
2016-11-01T01:49:58.034Z,1017.85
2016-11-01T01:50:39.656Z,1017.85
2016-11-01T01:52:34.497Z,1017.84
2016-11-01T01:53:16.207Z,1017.87
2016-11-01T01:53:57.896Z,1017.88
2016-11-01T01:54:39.659Z,1017.85
2016-11-01T01:56:55.120Z,1017.89
2016-11-01T01:57:36.822Z,1017.87
2016-11-01T01:58:18.575Z,1017.87
2016-11-01T01:59:00.285Z,1017.88
2016-11-01T01:59:41.919Z,1017.89
2016-11-01T02:00:23.685Z,1017.86
2016-11-01T02:01:05.314Z,1017.88
2016-11-01T02:01:46.030Z,1017.83
2016-11-01T02:02:26.567Z,1017.82
2016-11-01T02:03:07.096Z,1017.84
2016-11-01T02:03:47.635Z,1017.82
2016-11-01T02:04:28.173Z,1017.84
2016-11-01T02:05:08.711Z,1017.81
2016-11-01T02:05:49.248Z,1017.83
2016-11-01T02:06:29.788Z,1017.82
2016-11-01T02:07:10.315Z,1017.82
2016-11-01T02:07:50.856Z,1017.79
2016-11-01T02:08:31.395Z,1017.82
2016-11-01T02:09:11.927Z,1017.82
2016-11-01T02:09:52.456Z,1017.81
2016-11-01T02:10:32.992Z,1017.83
2016-11-01T02:11:13.523Z,1017.86
2016-11-01T02:11:54.068Z,1017.84
2016-11-01T02:12:34.595Z,1017.83
2016-11-01T02:13:15.142Z,1017.77
2016-11-01T02:13:55.681Z,1017.81
2016-11-01T02:14:36.273Z,1017.77
2016-11-01T02:16:30.321Z,1017.73
2016-11-01T02:17:10.854Z,1017.73
2016-11-01T02:17:51.403Z,1017.72
2016-11-01T02:18:31.923Z,1017.72
2016-11-01T02:19:12.460Z,1017.69
2016-11-01T02:19:53.003Z,1017.73
2016-11-01T02:20:33.534Z,1017.73
2016-11-01T02:21:14.075Z,1017.73
2016-11-01T02:21:54.612Z,1017.7
2016-11-01T02:22:35.152Z,1017.72
2016-11-01T02:23:15.687Z,1017.69
2016-11-01T02:23:56.205Z,1017.71
2016-11-01T02:24:36.741Z,1017.64
2016-11-01T02:25:17.288Z,1017.62
2016-11-01T02:25:57.821Z,1017.62
2016-11-01T02:26:38.358Z,1017.6
2016-11-01T02:27:18.902Z,1017.62
2016-11-01T02:27:59.433Z,1017.63
2016-11-01T02:28:39.955Z,1017.63
2016-11-01T02:29:20.489Z,1017.62
2016-11-01T02:30:01.028Z,1017.61
2016-11-01T02:30:41.561Z,1017.63
2016-11-01T02:31:22.102Z,1017.56
2016-11-01T02:32:02.642Z,1017.61
2016-11-01T02:32:43.168Z,1017.58
2016-11-01T02:33:23.695Z,1017.62
2016-11-01T02:34:04.239Z,1017.59
2016-11-01T02:34:44.775Z,1017.65
2016-11-01T02:35:25.317Z,1017.63
2016-11-01T02:36:05.832Z,1017.64
2016-11-01T02:36:46.366Z,1017.63
2016-11-01T02:37:26.911Z,1017.66
2016-11-01T02:38:07.443Z,1017.64
2016-11-01T02:38:47.982Z,1017.65
2016-11-01T02:39:28.519Z,1017.64
2016-11-01T02:40:09.062Z,1017.62
2016-11-01T02:40:49.585Z,1017.65
2016-11-01T02:41:30.114Z,1017.6
2016-11-01T02:42:10.625Z,1017.64
2016-11-01T02:42:51.159Z,1017.62
2016-11-01T02:43:31.686Z,1017.6
2016-11-01T02:44:12.215Z,1017.63
2016-11-01T02:44:52.748Z,1017.59
2016-11-01T02:45:33.286Z,1017.6
2016-11-01T02:46:13.831Z,1017.58
2016-11-01T02:46:54.365Z,1017.61
2016-11-01T02:47:34.907Z,1017.59
2016-11-01T02:48:15.439Z,1017.58
2016-11-01T02:48:55.967Z,1017.57
2016-11-01T02:49:36.504Z,1017.57
2016-11-01T02:50:17.044Z,1017.58
2016-11-01T02:50:57.588Z,1017.56
2016-11-01T02:51:38.140Z,1017.52
2016-11-01T02:52:18.689Z,1017.5
2016-11-01T02:52:59.228Z,1017.52
2016-11-01T02:53:39.779Z,1017.49
2016-11-01T02:54:20.289Z,1017.46
2016-11-01T02:55:00.823Z,1017.48
2016-11-01T02:55:41.358Z,1017.48
2016-11-01T02:56:21.901Z,1017.43
2016-11-01T02:57:02.442Z,1017.43
2016-11-01T02:57:42.984Z,1017.45
2016-11-01T02:58:23.506Z,1017.46
2016-11-01T02:59:04.037Z,1017.44
2016-11-01T02:59:44.564Z,1017.46
2016-11-01T03:00:25.117Z,1017.44
2016-11-01T03:01:05.661Z,1017.44
2016-11-01T03:01:46.196Z,1017.4
2016-11-01T03:02:26.735Z,1017.43
2016-11-01T03:03:07.269Z,1017.46
2016-11-01T03:03:47.791Z,1017.44
2016-11-01T03:04:28.331Z,1017.41
2016-11-01T03:05:08.864Z,1017.43
2016-11-01T03:05:49.404Z,1017.43
2016-11-01T03:06:29.953Z,1017.42
2016-11-01T03:07:10.494Z,1017.36
2016-11-01T03:07:51.035Z,1017.36
2016-11-01T03:08:31.571Z,1017.38
2016-11-01T03:09:12.120Z,1017.38
2016-11-01T03:09:52.657Z,1017.33
2016-11-01T03:10:33.188Z,1017.34
2016-11-01T03:11:13.725Z,1017.3
2016-11-01T03:11:54.262Z,1017.33
2016-11-01T03:12:34.798Z,1017.3
2016-11-01T03:13:15.333Z,1017.33
2016-11-01T03:13:55.871Z,1017.29
2016-11-01T03:14:36.405Z,1017.31
2016-11-01T03:15:16.940Z,1017.31
2016-11-01T03:15:57.481Z,1017.29
2016-11-01T03:16:38.012Z,1017.33
2016-11-01T03:17:18.555Z,1017.28
2016-11-01T03:17:59.100Z,1017.31
2016-11-01T03:18:39.625Z,1017.31
2016-11-01T03:19:20.178Z,1017.27
2016-11-01T03:20:00.714Z,1017.28
2016-11-01T03:20:41.248Z,1017.25
2016-11-01T03:21:21.778Z,1017.24
2016-11-01T03:22:02.313Z,1017.23
2016-11-01T03:22:42.857Z,1017.22
2016-11-01T03:23:23.381Z,1017.22
2016-11-01T03:24:03.911Z,1017.2
2016-11-01T03:24:44.449Z,1017.26
2016-11-01T03:25:24.980Z,1017.24
2016-11-01T03:26:05.533Z,1017.24
2016-11-01T03:26:46.067Z,1017.24
2016-11-01T03:27:26.608Z,1017.26
2016-11-01T03:28:07.128Z,1017.26
2016-11-01T03:28:47.652Z,1017.28
2016-11-01T03:29:28.178Z,1017.28
2016-11-01T03:30:08.720Z,1017.28
2016-11-01T03:30:49.262Z,1017.31
2016-11-01T03:31:29.803Z,1017.28
2016-11-01T03:32:10.329Z,1017.29
2016-11-01T03:32:50.873Z,1017.3
2016-11-01T03:33:31.403Z,1017.29
2016-11-01T03:34:11.930Z,1017.3
2016-11-01T03:34:52.487Z,1017.35
2016-11-01T03:35:33.026Z,1017.35
2016-11-01T03:36:13.564Z,1017.29
2016-11-01T03:36:54.110Z,1017.33
2016-11-01T03:37:34.646Z,1017.34
2016-11-01T03:38:15.180Z,1017.32
2016-11-01T03:38:55.694Z,1017.35
2016-11-01T03:39:36.238Z,1017.36
2016-11-01T03:40:16.782Z,1017.3
2016-11-01T03:40:57.332Z,1017.33
2016-11-01T03:41:37.858Z,1017.34
2016-11-01T03:42:18.386Z,1017.37
2016-11-01T03:42:58.909Z,1017.37
2016-11-01T03:43:39.441Z,1017.35
2016-11-01T03:44:19.974Z,1017.35
2016-11-01T03:45:00.505Z,1017.34
2016-11-01T03:45:41.047Z,1017.32
2016-11-01T03:46:21.567Z,1017.29
2016-11-01T03:47:02.102Z,1017.28
2016-11-01T03:47:42.646Z,1017.3
2016-11-01T03:48:23.175Z,1017.27
2016-11-01T03:49:03.719Z,1017.24
2016-11-01T03:49:44.244Z,1017.24
2016-11-01T03:50:24.788Z,1017.23
2016-11-01T03:51:05.324Z,1017.25
2016-11-01T03:51:45.844Z,1017.23
2016-11-01T03:52:26.374Z,1017.19
2016-11-01T03:53:06.904Z,1017.22
2016-11-01T03:53:47.439Z,1017.17
2016-11-01T03:54:27.979Z,1017.19
2016-11-01T03:55:08.518Z,1017.15
2016-11-01T03:55:49.052Z,1017.12
2016-11-01T03:56:29.585Z,1017.18
2016-11-01T03:57:10.120Z,1017.16
2016-11-01T03:57:50.655Z,1017.17
2016-11-01T03:58:31.186Z,1017.17
2016-11-01T03:59:11.720Z,1017.21
2016-11-01T03:59:52.254Z,1017.2
2016-11-01T04:00:32.792Z,1017.2
2016-11-01T04:01:13.333Z,1017.2
2016-11-01T04:01:53.874Z,1017.2
2016-11-01T04:02:34.397Z,1017.24
2016-11-01T04:03:14.936Z,1017.21
2016-11-01T04:03:55.475Z,1017.19
2016-11-01T04:04:36.009Z,1017.2
2016-11-01T04:05:16.542Z,1017.2
2016-11-01T04:05:57.087Z,1017.19
2016-11-01T04:06:37.633Z,1017.2
2016-11-01T04:07:18.185Z,1017.14
2016-11-01T04:07:58.729Z,1017.16
2016-11-01T04:08:39.254Z,1017.14
2016-11-01T04:09:19.784Z,1017.15
2016-11-01T04:10:00.318Z,1017.13
2016-11-01T04:10:40.862Z,1017.11
2016-11-01T04:11:21.404Z,1017.13
2016-11-01T04:12:01.953Z,1017.13
2016-11-01T04:12:42.493Z,1017.09
2016-11-01T04:13:23.038Z,1017.1
2016-11-01T04:14:03.569Z,1017.1
2016-11-01T04:14:44.096Z,1017.08
2016-11-01T04:15:24.634Z,1017.08
2016-11-01T04:16:05.175Z,1017.06
2016-11-01T04:16:45.713Z,1017.02
2016-11-01T04:17:26.246Z,1017.05
2016-11-01T04:18:06.792Z,1017.07
2016-11-01T04:18:47.322Z,1017.05
2016-11-01T04:19:27.863Z,1017.04
2016-11-01T04:20:08.387Z,1016.99
2016-11-01T04:20:48.921Z,1017.04
2016-11-01T04:21:29.461Z,1017.01
2016-11-01T04:22:09.996Z,1017.01
2016-11-01T04:22:50.525Z,1016.98
2016-11-01T04:23:31.109Z,1016.93
2016-11-01T04:24:11.800Z,1016.97
2016-11-01T04:24:52.336Z,1016.94
2016-11-01T04:25:32.878Z,1016.94
2016-11-01T04:26:13.420Z,1016.91
2016-11-01T04:26:53.969Z,1016.95
2016-11-01T04:27:34.511Z,1016.9
2016-11-01T04:28:15.052Z,1016.89
2016-11-01T04:28:55.573Z,1016.89
2016-11-01T04:29:36.282Z,1016.89
2016-11-01T04:30:16.818Z,1016.91
2016-11-01T04:30:57.339Z,1016.92
2016-11-01T04:31:37.878Z,1016.91
2016-11-01T04:32:18.406Z,1016.92
2016-11-01T04:32:58.934Z,1016.94
2016-11-01T04:33:39.475Z,1016.95
2016-11-01T04:34:20.026Z,1016.96
2016-11-01T04:35:00.632Z,1016.95
2016-11-01T04:35:41.250Z,1016.95
2016-11-01T04:36:21.779Z,1016.95
2016-11-01T04:37:02.310Z,1016.93
2016-11-01T04:37:42.820Z,1016.95
2016-11-01T04:38:23.356Z,1016.94
2016-11-01T04:39:03.899Z,1016.9
2016-11-01T04:39:44.438Z,1016.9
2016-11-01T04:40:24.971Z,1016.92
2016-11-01T04:41:05.516Z,1016.9
2016-11-01T04:41:46.038Z,1016.91
2016-11-01T04:42:26.566Z,1016.87
2016-11-01T04:43:07.105Z,1016.9
2016-11-01T04:43:47.650Z,1016.86
2016-11-01T04:44:28.190Z,1016.87
2016-11-01T04:45:08.724Z,1016.88
2016-11-01T04:45:49.269Z,1016.83
2016-11-01T04:46:29.792Z,1016.86
2016-11-01T04:47:10.322Z,1016.88
2016-11-01T04:47:50.861Z,1016.86
2016-11-01T04:48:31.405Z,1016.86
2016-11-01T04:49:11.943Z,1016.85
2016-11-01T04:49:52.486Z,1016.8
2016-11-01T04:50:33.025Z,1016.82
2016-11-01T04:51:13.544Z,1016.82
2016-11-01T04:51:54.072Z,1016.8
2016-11-01T04:52:34.609Z,1016.79
2016-11-01T04:53:15.149Z,1016.77
2016-11-01T04:53:55.687Z,1016.77
2016-11-01T04:54:36.212Z,1016.76
2016-11-01T04:55:16.743Z,1016.75
2016-11-01T04:55:57.276Z,1016.74
2016-11-01T04:56:37.811Z,1016.72
2016-11-01T04:57:18.347Z,1016.72
2016-11-01T04:57:58.891Z,1016.72
2016-11-01T04:58:39.434Z,1016.73
2016-11-01T04:59:19.948Z,1016.7
2016-11-01T05:00:00.480Z,1016.73
2016-11-01T05:00:41.017Z,1016.7
2016-11-01T05:01:21.562Z,1016.73
2016-11-01T05:02:02.086Z,1016.72
2016-11-01T05:02:42.770Z,1016.71
2016-11-01T05:03:23.238Z,1016.69
2016-11-01T05:04:03.774Z,1016.69
2016-11-01T05:04:44.316Z,1016.7
2016-11-01T05:05:24.864Z,1016.75
2016-11-01T05:06:05.409Z,1016.74
2016-11-01T05:06:45.957Z,1016.71
2016-11-01T05:07:26.484Z,1016.69
2016-11-01T05:08:07.017Z,1016.72
2016-11-01T05:08:47.542Z,1016.71
2016-11-01T05:09:28.081Z,1016.72
2016-11-01T05:10:08.623Z,1016.67
2016-11-01T05:10:49.236Z,1016.7
2016-11-01T05:11:29.788Z,1016.7
2016-11-01T05:12:10.306Z,1016.67
2016-11-01T05:12:50.921Z,1016.68
2016-11-01T05:13:31.566Z,1016.65
2016-11-01T05:14:12.106Z,1016.66
2016-11-01T05:14:52.650Z,1016.65
2016-11-01T05:15:33.182Z,1016.65
2016-11-01T05:16:13.705Z,1016.64
2016-11-01T05:16:54.238Z,1016.66
2016-11-01T05:17:34.780Z,1016.66
2016-11-01T05:18:15.373Z,1016.65
2016-11-01T05:18:55.903Z,1016.63
2016-11-01T05:19:36.451Z,1016.64
2016-11-01T05:20:16.991Z,1016.62
2016-11-01T05:20:57.543Z,1016.57
2016-11-01T05:21:38.086Z,1016.58
2016-11-01T05:22:18.636Z,1016.62
2016-11-01T05:22:59.178Z,1016.6
2016-11-01T05:23:39.721Z,1016.62
2016-11-01T05:24:20.265Z,1016.57
2016-11-01T05:25:00.797Z,1016.61
2016-11-01T05:25:41.330Z,1016.62
2016-11-01T05:26:21.862Z,1016.64
2016-11-01T05:27:02.400Z,1016.68
2016-11-01T05:27:42.941Z,1016.63
2016-11-01T05:28:23.478Z,1016.64
2016-11-01T05:29:03.997Z,1016.61
2016-11-01T05:29:44.517Z,1016.61
2016-11-01T05:30:25.050Z,1016.6
2016-11-01T05:31:05.590Z,1016.63
2016-11-01T05:31:46.124Z,1016.6
2016-11-01T05:32:26.665Z,1016.59
2016-11-01T05:33:07.180Z,1016.61
2016-11-01T05:33:47.713Z,1016.58
2016-11-01T05:34:28.241Z,1016.57
2016-11-01T05:35:08.791Z,1016.54
2016-11-01T05:35:49.330Z,1016.56
2016-11-01T05:36:29.860Z,1016.57
2016-11-01T05:37:10.390Z,1016.58
2016-11-01T05:37:50.924Z,1016.57
2016-11-01T05:38:31.462Z,1016.57
2016-11-01T05:39:12.000Z,1016.54
2016-11-01T05:39:52.546Z,1016.52
2016-11-01T05:40:33.098Z,1016.56
2016-11-01T05:41:13.738Z,1016.52
2016-11-01T05:41:54.295Z,1016.53
2016-11-01T05:42:34.835Z,1016.51
2016-11-01T05:43:15.373Z,1016.5
2016-11-01T05:43:55.903Z,1016.5
2016-11-01T05:44:36.432Z,1016.5
2016-11-01T05:45:16.954Z,1016.54
2016-11-01T05:45:57.487Z,1016.52
2016-11-01T05:46:38.008Z,1016.51
2016-11-01T05:47:18.546Z,1016.49
2016-11-01T05:47:59.079Z,1016.52
2016-11-01T05:48:39.616Z,1016.57
2016-11-01T05:49:20.154Z,1016.51
2016-11-01T05:50:00.689Z,1016.51
2016-11-01T05:50:41.232Z,1016.57
2016-11-01T05:51:21.773Z,1016.5
2016-11-01T05:52:02.318Z,1016.54
2016-11-01T05:52:42.842Z,1016.5
2016-11-01T05:53:23.366Z,1016.5
2016-11-01T05:54:03.909Z,1016.53
2016-11-01T05:54:44.435Z,1016.48
2016-11-01T05:55:24.955Z,1016.53
2016-11-01T05:56:05.507Z,1016.51
2016-11-01T05:56:46.026Z,1016.5
2016-11-01T05:57:26.563Z,1016.49
2016-11-01T05:58:07.108Z,1016.53
2016-11-01T05:58:47.658Z,1016.52
2016-11-01T05:59:28.199Z,1016.52
2016-11-01T06:00:08.737Z,1016.51
2016-11-01T06:00:49.256Z,1016.51
2016-11-01T06:01:29.781Z,1016.54
2016-11-01T06:02:10.309Z,1016.53
2016-11-01T06:02:50.860Z,1016.5
2016-11-01T06:03:31.402Z,1016.51
2016-11-01T06:04:11.946Z,1016.51
2016-11-01T06:04:52.477Z,1016.51
2016-11-01T06:05:33.002Z,1016.5
2016-11-01T06:06:13.531Z,1016.51
2016-11-01T06:06:54.063Z,1016.47
2016-11-01T06:07:34.611Z,1016.49
2016-11-01T06:08:15.151Z,1016.48
2016-11-01T06:08:55.681Z,1016.48
2016-11-01T06:09:36.209Z,1016.46
2016-11-01T06:10:16.739Z,1016.52
2016-11-01T06:10:57.277Z,1016.44
2016-11-01T06:11:37.813Z,1016.48
2016-11-01T06:12:18.354Z,1016.5
2016-11-01T06:12:58.893Z,1016.52
2016-11-01T06:13:39.441Z,1016.49
2016-11-01T06:14:19.982Z,1016.49
2016-11-01T06:15:00.513Z,1016.47
2016-11-01T06:15:41.037Z,1016.49
2016-11-01T06:16:21.563Z,1016.51
2016-11-01T06:17:02.107Z,1016.5
2016-11-01T06:17:42.646Z,1016.47
2016-11-01T06:18:23.160Z,1016.48
2016-11-01T06:19:03.690Z,1016.5
2016-11-01T06:19:44.228Z,1016.49
2016-11-01T06:20:24.771Z,1016.49
2016-11-01T06:21:05.326Z,1016.47
2016-11-01T06:21:45.871Z,1016.47
2016-11-01T06:22:26.427Z,1016.46
2016-11-01T06:23:06.967Z,1016.5
2016-11-01T06:23:47.520Z,1016.47
2016-11-01T06:24:28.056Z,1016.49
2016-11-01T06:25:08.596Z,1016.53
2016-11-01T06:25:49.117Z,1016.51
2016-11-01T06:26:29.659Z,1016.5
2016-11-01T06:27:10.193Z,1016.53
2016-11-01T06:27:50.737Z,1016.5
2016-11-01T06:28:31.276Z,1016.45
2016-11-01T06:29:11.818Z,1016.46
2016-11-01T06:29:52.361Z,1016.5
2016-11-01T06:30:32.909Z,1016.47
2016-11-01T06:31:13.454Z,1016.47
2016-11-01T06:31:53.984Z,1016.49
2016-11-01T06:32:34.550Z,1016.49
2016-11-01T06:33:15.090Z,1016.48
2016-11-01T06:33:55.627Z,1016.48
2016-11-01T06:34:36.238Z,1016.49
2016-11-01T06:35:16.781Z,1016.48
2016-11-01T06:35:57.312Z,1016.5
2016-11-01T06:36:37.860Z,1016.48
2016-11-01T06:37:18.433Z,1016.51
2016-11-01T06:37:58.975Z,1016.49
2016-11-01T06:38:39.498Z,1016.46
2016-11-01T06:39:20.019Z,1016.52
2016-11-01T06:40:00.564Z,1016.53
2016-11-01T06:40:41.083Z,1016.53
2016-11-01T06:41:21.638Z,1016.52
2016-11-01T06:42:02.183Z,1016.51
2016-11-01T06:42:42.724Z,1016.53
2016-11-01T06:43:23.261Z,1016.48
2016-11-01T06:44:03.807Z,1016.51
2016-11-01T06:44:44.328Z,1016.52
2016-11-01T06:45:24.855Z,1016.5
2016-11-01T06:46:05.393Z,1016.49
2016-11-01T06:46:45.925Z,1016.55
2016-11-01T06:47:26.473Z,1016.54
2016-11-01T06:48:07.004Z,1016.51
2016-11-01T06:48:47.537Z,1016.52
2016-11-01T06:49:28.075Z,1016.58
2016-11-01T06:50:08.617Z,1016.54
2016-11-01T06:50:49.144Z,1016.58
2016-11-01T06:51:29.690Z,1016.56
2016-11-01T06:52:10.216Z,1016.52
2016-11-01T06:52:50.732Z,1016.53
2016-11-01T06:53:31.259Z,1016.51
2016-11-01T06:54:11.782Z,1016.52
2016-11-01T06:54:52.323Z,1016.52
2016-11-01T06:55:32.867Z,1016.53
2016-11-01T06:56:13.401Z,1016.5
2016-11-01T06:56:53.993Z,1016.49
2016-11-01T06:57:34.769Z,1016.52
2016-11-01T06:58:15.303Z,1016.49
2016-11-01T06:58:55.824Z,1016.52
2016-11-01T06:59:36.357Z,1016.58
2016-11-01T07:00:16.885Z,1016.52
2016-11-01T07:00:57.414Z,1016.53
2016-11-01T07:01:37.936Z,1016.55
2016-11-01T07:02:18.486Z,1016.55
2016-11-01T07:02:58.994Z,1016.54
2016-11-01T07:03:39.538Z,1016.53
2016-11-01T07:04:20.062Z,1016.51
2016-11-01T07:05:00.583Z,1016.53
2016-11-01T07:05:41.095Z,1016.56
2016-11-01T07:06:21.631Z,1016.54
2016-11-01T07:07:02.182Z,1016.58
2016-11-01T07:07:42.724Z,1016.58
2016-11-01T07:08:23.252Z,1016.6
2016-11-01T07:09:03.785Z,1016.62
2016-11-01T07:09:44.353Z,1016.61
2016-11-01T07:10:24.889Z,1016.62
2016-11-01T07:11:05.439Z,1016.64
2016-11-01T07:11:45.962Z,1016.61
2016-11-01T07:12:26.481Z,1016.63
2016-11-01T07:13:07.016Z,1016.61
2016-11-01T07:13:47.560Z,1016.63
2016-11-01T07:14:28.101Z,1016.61
2016-11-01T07:15:08.690Z,1016.62
2016-11-01T07:15:49.201Z,1016.56
2016-11-01T07:16:29.740Z,1016.61
2016-11-01T07:17:10.274Z,1016.61
2016-11-01T07:17:50.869Z,1016.6
2016-11-01T07:18:31.578Z,1016.58
2016-11-01T07:19:12.099Z,1016.63
2016-11-01T07:19:52.630Z,1016.63
2016-11-01T07:20:33.170Z,1016.62
2016-11-01T07:21:13.708Z,1016.62
2016-11-01T07:21:54.247Z,1016.62
2016-11-01T07:22:34.785Z,1016.62
2016-11-01T07:23:15.312Z,1016.65
2016-11-01T07:23:55.843Z,1016.66
2016-11-01T07:24:36.406Z,1016.66
2016-11-01T07:25:16.936Z,1016.65
2016-11-01T07:25:57.675Z,1016.61
2016-11-01T07:26:38.087Z,1016.64
2016-11-01T07:27:18.866Z,1016.6
2016-11-01T07:27:59.466Z,1016.61
2016-11-01T07:28:39.998Z,1016.6
2016-11-01T07:29:20.544Z,1016.62
2016-11-01T07:30:01.165Z,1016.63
2016-11-01T07:30:41.728Z,1016.64
2016-11-01T07:31:22.274Z,1016.62
2016-11-01T07:32:02.804Z,1016.66
2016-11-01T07:32:43.343Z,1016.65
2016-11-01T07:33:23.881Z,1016.61
2016-11-01T07:34:04.553Z,1016.63
2016-11-01T07:34:45.178Z,1016.62
2016-11-01T07:35:25.724Z,1016.62
2016-11-01T07:36:06.259Z,1016.65
2016-11-01T07:36:46.835Z,1016.66
2016-11-01T07:37:27.458Z,1016.63
2016-11-01T07:38:08.000Z,1016.67
2016-11-01T07:38:48.654Z,1016.66
2016-11-01T07:39:29.115Z,1016.66
2016-11-01T07:40:09.661Z,1016.66
2016-11-01T07:40:50.193Z,1016.67
2016-11-01T07:41:30.968Z,1016.65
2016-11-01T07:42:11.503Z,1016.67
2016-11-01T07:42:52.049Z,1016.68
2016-11-01T07:43:32.590Z,1016.64
2016-11-01T07:44:13.121Z,1016.7
2016-11-01T07:44:53.706Z,1016.62
2016-11-01T07:45:34.252Z,1016.6
2016-11-01T07:46:14.794Z,1016.6
2016-11-01T07:46:55.312Z,1016.61
2016-11-01T07:47:35.842Z,1016.58
2016-11-01T07:48:16.390Z,1016.57
2016-11-01T07:48:57.045Z,1016.53
2016-11-01T07:49:37.497Z,1016.54
2016-11-01T07:50:18.038Z,1016.52
2016-11-01T07:50:58.574Z,1016.51
2016-11-01T07:51:39.115Z,1016.53
2016-11-01T07:52:19.657Z,1016.52
2016-11-01T07:53:00.212Z,1016.55
2016-11-01T07:53:40.751Z,1016.54
2016-11-01T07:54:21.275Z,1016.49
2016-11-01T07:55:01.845Z,1016.49
2016-11-01T07:55:42.510Z,1016.46
2016-11-01T07:56:23.047Z,1016.46
2016-11-01T07:57:03.578Z,1016.47
2016-11-01T07:57:44.112Z,1016.46
2016-11-01T07:58:24.641Z,1016.43
2016-11-01T07:59:05.194Z,1016.47
2016-11-01T07:59:45.723Z,1016.47
2016-11-01T08:00:26.292Z,1016.46
2016-11-01T08:01:06.844Z,1016.39
2016-11-01T08:01:47.395Z,1016.41
2016-11-01T08:02:27.921Z,1016.48
2016-11-01T08:03:08.462Z,1016.47
2016-11-01T08:03:48.985Z,1016.46
2016-11-01T08:04:29.543Z,1016.47
2016-11-01T08:05:11.644Z,1016.47
2016-11-01T08:05:51.777Z,1016.48
2016-11-01T08:06:32.314Z,1016.44
2016-11-01T08:07:12.984Z,1016.44
2016-11-01T08:07:53.529Z,1016.45
2016-11-01T08:08:34.052Z,1016.46
2016-11-01T08:09:14.583Z,1016.43
2016-11-01T08:09:55.125Z,1016.44
2016-11-01T08:10:35.662Z,1016.44
2016-11-01T08:11:16.172Z,1016.46
2016-11-01T08:11:56.703Z,1016.41
2016-11-01T08:12:37.239Z,1016.44
2016-11-01T08:13:17.771Z,1016.44
2016-11-01T08:13:58.348Z,1016.39
2016-11-01T08:14:38.817Z,1016.41
2016-11-01T08:15:19.337Z,1016.38
2016-11-01T08:15:59.887Z,1016.43
2016-11-01T08:16:40.440Z,1016.43
2016-11-01T08:17:20.976Z,1016.41
2016-11-01T08:18:01.502Z,1016.46
2016-11-01T08:18:42.034Z,1016.41
2016-11-01T08:19:22.548Z,1016.48
2016-11-01T08:20:03.075Z,1016.43
2016-11-01T08:20:43.594Z,1016.43
2016-11-01T08:21:24.117Z,1016.44
2016-11-01T08:22:04.642Z,1016.39
2016-11-01T08:22:45.153Z,1016.39
2016-11-01T08:23:25.692Z,1016.44
2016-11-01T08:24:06.214Z,1016.44
2016-11-01T08:24:46.737Z,1016.4
2016-11-01T08:25:27.261Z,1016.37
2016-11-01T08:26:07.778Z,1016.39
2016-11-01T08:26:48.303Z,1016.35
2016-11-01T08:27:28.843Z,1016.38
2016-11-01T08:28:09.374Z,1016.41
2016-11-01T08:28:49.922Z,1016.4
2016-11-01T08:29:30.463Z,1016.35
2016-11-01T08:30:10.982Z,1016.33
2016-11-01T08:30:51.528Z,1016.34
2016-11-01T08:31:32.048Z,1016.32
2016-11-01T08:32:12.583Z,1016.28
2016-11-01T08:32:53.112Z,1016.31
2016-11-01T08:33:33.643Z,1016.27
2016-11-01T08:34:14.168Z,1016.3
2016-11-01T08:34:54.700Z,1016.32
2016-11-01T08:35:35.227Z,1016.32
2016-11-01T08:36:15.757Z,1016.28
2016-11-01T08:36:56.297Z,1016.26
2016-11-01T08:37:36.827Z,1016.3
2016-11-01T08:38:17.356Z,1016.27
2016-11-01T08:38:57.892Z,1016.28
2016-11-01T08:39:38.442Z,1016.23
2016-11-01T08:40:18.987Z,1016.28
2016-11-01T08:40:59.533Z,1016.23
2016-11-01T08:41:40.075Z,1016.27
2016-11-01T08:42:20.599Z,1016.24
2016-11-01T08:43:01.126Z,1016.24
2016-11-01T08:43:41.653Z,1016.21
2016-11-01T08:44:22.178Z,1016.21
2016-11-01T08:45:02.706Z,1016.21
2016-11-01T08:45:43.239Z,1016.23
2016-11-01T08:46:23.765Z,1016.24
2016-11-01T08:47:04.311Z,1016.19
2016-11-01T08:47:44.861Z,1016.19
2016-11-01T08:48:25.382Z,1016.21
2016-11-01T08:49:05.906Z,1016.2
2016-11-01T08:49:46.433Z,1016.18
2016-11-01T08:50:26.976Z,1016.18
2016-11-01T08:51:07.514Z,1016.12
2016-11-01T08:51:48.054Z,1016.14
2016-11-01T08:52:28.594Z,1016.16
2016-11-01T08:53:09.131Z,1016.17
2016-11-01T08:53:49.667Z,1016.18
2016-11-01T08:54:30.206Z,1016.18
2016-11-01T08:55:10.737Z,1016.15
2016-11-01T08:55:51.284Z,1016.17
2016-11-01T08:56:31.818Z,1016.23
2016-11-01T08:57:12.358Z,1016.2
2016-11-01T08:57:52.902Z,1016.2
2016-11-01T08:58:33.414Z,1016.19
2016-11-01T08:59:13.958Z,1016.18
2016-11-01T08:59:54.492Z,1016.18